sensor_id;sensor_type;location;lat;lon;timestamp;pressure;altitude;pressure_sealevel;temperature;humidity
82458;BME280;72081;48.870;11.074;2023-08-20T00:01:37;97542.44;;;22.36;71.72
82458;BME280;72081;48.870;11.074;2023-08-20T00:04:03;97534.00;;;22.38;72.08
82458;BME280;72081;48.870;11.074;2023-08-20T00:06:28;97536.22;;;22.50;70.98
82458;BME280;72081;48.870;11.074;2023-08-20T00:08:54;97542.00;;;22.62;70.80
82458;BME280;72081;48.870;11.074;2023-08-20T00:11:19;97537.53;;;22.52;70.75
82458;BME280;72081;48.870;11.074;2023-08-20T00:13:45;97537.94;;;22.46;70.80
82458;BME280;72081;48.870;11.074;2023-08-20T00:16:10;97545.16;;;22.36;70.78
82458;BME280;72081;48.870;11.074;2023-08-20T00:18:36;97542.00;;;22.29;71.00
82458;BME280;72081;48.870;11.074;2023-08-20T00:21:03;97547.97;;;22.31;71.33
82458;BME280;72081;48.870;11.074;2023-08-20T00:23:29;97544.94;;;22.33;71.39
82458;BME280;72081;48.870;11.074;2023-08-20T00:25:55;97543.63;;;22.30;71.55
82458;BME280;72081;48.870;11.074;2023-08-20T00:28:20;97538.41;;;22.34;71.84
82458;BME280;72081;48.870;11.074;2023-08-20T00:30:46;97546.69;;;22.42;70.56
82458;BME280;72081;48.870;11.074;2023-08-20T00:33:11;97551.47;;;22.32;70.75
82458;BME280;72081;48.870;11.074;2023-08-20T00:35:36;97558.41;;;22.24;71.60
82458;BME280;72081;48.870;11.074;2023-08-20T00:38:02;97552.09;;;22.29;71.83
82458;BME280;72081;48.870;11.074;2023-08-20T00:40:28;97551.13;;;22.38;71.38
82458;BME280;72081;48.870;11.074;2023-08-20T00:42:53;97555.63;;;22.10;71.69
82458;BME280;72081;48.870;11.074;2023-08-20T00:45:18;97552.31;;;21.95;72.11
82458;BME280;72081;48.870;11.074;2023-08-20T00:47:44;97553.13;;;22.14;72.13
82458;BME280;72081;48.870;11.074;2023-08-20T00:50:09;97552.97;;;22.24;71.41
82458;BME280;72081;48.870;11.074;2023-08-20T00:52:36;97563.06;;;22.05;71.48
82458;BME280;72081;48.870;11.074;2023-08-20T00:55:20;97551.97;;;22.01;71.76
82458;BME280;72081;48.870;11.074;2023-08-20T00:57:45;97562.88;;;21.96;71.88
82458;BME280;72081;48.870;11.074;2023-08-20T01:00:10;97554.53;;;21.93;71.62
82458;BME280;72081;48.870;11.074;2023-08-20T01:02:37;97552.59;;;21.93;71.18
82458;BME280;72081;48.870;11.074;2023-08-20T01:05:03;97553.00;;;21.87;72.35
82458;BME280;72081;48.870;11.074;2023-08-20T01:10:15;97544.84;;;21.87;71.35
82458;BME280;72081;48.870;11.074;2023-08-20T01:12:43;97549.09;;;21.93;72.39
82458;BME280;72081;48.870;11.074;2023-08-20T01:15:11;97544.47;;;21.74;71.69
82458;BME280;72081;48.870;11.074;2023-08-20T01:17:40;97557.75;;;21.76;72.77
82458;BME280;72081;48.870;11.074;2023-08-20T01:20:06;97549.03;;;21.79;72.76
82458;BME280;72081;48.870;11.074;2023-08-20T01:28:42;97569.06;;;21.64;72.83
82458;BME280;72081;48.870;11.074;2023-08-20T01:31:08;97570.38;;;21.48;73.33
82458;BME280;72081;48.870;11.074;2023-08-20T01:33:35;97567.66;;;21.48;73.35
82458;BME280;72081;48.870;11.074;2023-08-20T01:36:01;97577.06;;;21.56;73.51
82458;BME280;72081;48.870;11.074;2023-08-20T01:38:26;97571.19;;;21.67;73.34
82458;BME280;72081;48.870;11.074;2023-08-20T01:40:51;97570.53;;;21.57;73.50
82458;BME280;72081;48.870;11.074;2023-08-20T01:43:16;97571.25;;;21.43;73.10
82458;BME280;72081;48.870;11.074;2023-08-20T01:45:42;97565.44;;;21.50;73.44
82458;BME280;72081;48.870;11.074;2023-08-20T01:48:07;97569.19;;;21.54;73.10
82458;BME280;72081;48.870;11.074;2023-08-20T01:50:34;97579.84;;;21.50;72.81
82458;BME280;72081;48.870;11.074;2023-08-20T01:53:00;97578.19;;;21.31;73.96
82458;BME280;72081;48.870;11.074;2023-08-20T01:55:25;97582.22;;;21.33;72.87
82458;BME280;72081;48.870;11.074;2023-08-20T01:57:50;97581.81;;;21.21;73.46
82458;BME280;72081;48.870;11.074;2023-08-20T02:00:15;97583.69;;;21.20;73.84
82458;BME280;72081;48.870;11.074;2023-08-20T02:02:41;97591.91;;;21.15;74.01
82458;BME280;72081;48.870;11.074;2023-08-20T02:05:07;97586.19;;;21.17;73.42
82458;BME280;72081;48.870;11.074;2023-08-20T02:07:32;97596.38;;;21.06;73.83
82458;BME280;72081;48.870;11.074;2023-08-20T02:09:57;97590.66;;;21.08;73.94
82458;BME280;72081;48.870;11.074;2023-08-20T02:12:22;97592.38;;;21.23;72.99
82458;BME280;72081;48.870;11.074;2023-08-20T02:14:48;97594.75;;;21.05;73.59
82458;BME280;72081;48.870;11.074;2023-08-20T02:17:13;97589.31;;;21.05;74.02
82458;BME280;72081;48.870;11.074;2023-08-20T02:19:39;97586.84;;;21.09;74.07
82458;BME280;72081;48.870;11.074;2023-08-20T02:22:04;97584.06;;;21.14;74.33
82458;BME280;72081;48.870;11.074;2023-08-20T02:26:04;97585.91;;;21.18;73.15
82458;BME280;72081;48.870;11.074;2023-08-20T02:28:29;97580.31;;;21.10;73.73
82458;BME280;72081;48.870;11.074;2023-08-20T02:30:55;97579.94;;;20.92;73.89
82458;BME280;72081;48.870;11.074;2023-08-20T02:33:22;97583.38;;;21.03;74.00
82458;BME280;72081;48.870;11.074;2023-08-20T02:35:47;97583.75;;;21.15;73.24
82458;BME280;72081;48.870;11.074;2023-08-20T02:38:13;97584.47;;;21.02;73.46
82458;BME280;72081;48.870;11.074;2023-08-20T02:40:42;97589.94;;;20.97;73.91
82458;BME280;72081;48.870;11.074;2023-08-20T02:43:08;97587.28;;;20.92;73.62
82458;BME280;72081;48.870;11.074;2023-08-20T02:45:39;97580.88;;;20.83;73.85
82458;BME280;72081;48.870;11.074;2023-08-20T02:48:05;97584.06;;;20.90;74.39
82458;BME280;72081;48.870;11.074;2023-08-20T02:50:30;97586.81;;;20.85;73.30
82458;BME280;72081;48.870;11.074;2023-08-20T02:52:56;97583.41;;;20.74;74.94
82458;BME280;72081;48.870;11.074;2023-08-20T02:55:21;97576.25;;;20.83;74.94
82458;BME280;72081;48.870;11.074;2023-08-20T02:57:46;97572.91;;;20.91;74.12
82458;BME280;72081;48.870;11.074;2023-08-20T03:00:12;97573.50;;;20.88;73.55
82458;BME280;72081;48.870;11.074;2023-08-20T03:02:39;97576.59;;;20.77;74.32
82458;BME280;72081;48.870;11.074;2023-08-20T03:05:07;97569.59;;;20.71;74.30
82458;BME280;72081;48.870;11.074;2023-08-20T03:07:32;97567.19;;;20.69;74.28
82458;BME280;72081;48.870;11.074;2023-08-20T03:09:58;97569.09;;;20.69;74.47
82458;BME280;72081;48.870;11.074;2023-08-20T03:12:23;97568.38;;;20.82;73.23
82458;BME280;72081;48.870;11.074;2023-08-20T03:14:48;97569.22;;;20.82;73.75
82458;BME280;72081;48.870;11.074;2023-08-20T03:17:13;97574.78;;;20.67;73.88
82458;BME280;72081;48.870;11.074;2023-08-20T03:19:59;97569.09;;;20.69;73.77
82458;BME280;72081;48.870;11.074;2023-08-20T03:22:25;97579.69;;;20.65;75.40
82458;BME280;72081;48.870;11.074;2023-08-20T03:24:51;97575.97;;;20.56;74.76
82458;BME280;72081;48.870;11.074;2023-08-20T03:27:17;97575.75;;;20.52;74.94
82458;BME280;72081;48.870;11.074;2023-08-20T03:29:42;97587.97;;;20.50;75.11
82458;BME280;72081;48.870;11.074;2023-08-20T03:32:08;97580.09;;;20.14;76.18
82458;BME280;72081;48.870;11.074;2023-08-20T03:34:33;97585.03;;;20.07;76.48
82458;BME280;72081;48.870;11.074;2023-08-20T03:36:58;97588.41;;;20.28;76.45
82458;BME280;72081;48.870;11.074;2023-08-20T03:39:24;97585.13;;;20.31;76.04
82458;BME280;72081;48.870;11.074;2023-08-20T03:41:53;97581.78;;;20.39;75.18
82458;BME280;72081;48.870;11.074;2023-08-20T03:44:18;97581.59;;;20.30;76.19
82458;BME280;72081;48.870;11.074;2023-08-20T03:46:44;97588.19;;;20.19;75.43
82458;BME280;72081;48.870;11.074;2023-08-20T03:49:09;97584.13;;;20.17;75.30
82458;BME280;72081;48.870;11.074;2023-08-20T03:51:35;97586.88;;;20.12;76.01
82458;BME280;72081;48.870;11.074;2023-08-20T03:54:00;97584.66;;;20.19;75.53
82458;BME280;72081;48.870;11.074;2023-08-20T03:56:25;97590.66;;;20.16;76.44
82458;BME280;72081;48.870;11.074;2023-08-20T03:58:51;97594.69;;;20.18;76.39
82458;BME280;72081;48.870;11.074;2023-08-20T04:01:17;97591.16;;;20.18;76.32
82458;BME280;72081;48.870;11.074;2023-08-20T04:03:43;97589.66;;;20.07;76.87
82458;BME280;72081;48.870;11.074;2023-08-20T04:06:08;97595.81;;;20.12;75.95
82458;BME280;72081;48.870;11.074;2023-08-20T04:08:33;97598.59;;;20.07;76.83
82458;BME280;72081;48.870;11.074;2023-08-20T04:10:58;97596.16;;;20.06;76.40
82458;BME280;72081;48.870;11.074;2023-08-20T04:13:24;97601.78;;;20.14;75.72
82458;BME280;72081;48.870;11.074;2023-08-20T04:15:51;97598.59;;;20.07;76.81
82458;BME280;72081;48.870;11.074;2023-08-20T04:18:16;97599.94;;;20.05;76.08
82458;BME280;72081;48.870;11.074;2023-08-20T04:20:42;97605.66;;;19.98;75.70
82458;BME280;72081;48.870;11.074;2023-08-20T04:23:07;97596.09;;;20.11;75.93
82458;BME280;72081;48.870;11.074;2023-08-20T04:25:32;97603.63;;;20.19;75.68
82458;BME280;72081;48.870;11.074;2023-08-20T04:27:57;97598.53;;;20.12;75.09
82458;BME280;72081;48.870;11.074;2023-08-20T04:30:23;97600.72;;;20.10;75.27
82458;BME280;72081;48.870;11.074;2023-08-20T04:32:48;97600.50;;;20.01;75.99
82458;BME280;72081;48.870;11.074;2023-08-20T04:35:13;97597.06;;;19.91;76.34
82458;BME280;72081;48.870;11.074;2023-08-20T04:37:39;97597.06;;;19.91;76.36
82458;BME280;72081;48.870;11.074;2023-08-20T04:40:04;97602.09;;;20.08;75.10
82458;BME280;72081;48.870;11.074;2023-08-20T04:42:31;97597.19;;;20.10;75.63
82458;BME280;72081;48.870;11.074;2023-08-20T04:44:56;97606.44;;;20.09;75.32
82458;BME280;72081;48.870;11.074;2023-08-20T04:47:22;97616.19;;;20.05;75.61
82458;BME280;72081;48.870;11.074;2023-08-20T04:49:47;97609.66;;;20.11;75.51
82458;BME280;72081;48.870;11.074;2023-08-20T04:52:12;97603.91;;;20.17;74.54
82458;BME280;72081;48.870;11.074;2023-08-20T04:54:38;97610.66;;;20.20;74.82
82458;BME280;72081;48.870;11.074;2023-08-20T04:57:03;97611.75;;;20.19;75.03
82458;BME280;72081;48.870;11.074;2023-08-20T04:59:28;97614.13;;;20.30;75.40
82458;BME280;72081;48.870;11.074;2023-08-20T05:01:54;97617.28;;;20.43;74.38
82458;BME280;72081;48.870;11.074;2023-08-20T05:04:19;97610.59;;;20.30;74.56
82458;BME280;72081;48.870;11.074;2023-08-20T05:06:45;97617.66;;;20.31;75.07
82458;BME280;72081;48.870;11.074;2023-08-20T05:09:10;97612.47;;;20.35;75.10
82458;BME280;72081;48.870;11.074;2023-08-20T05:11:35;97615.38;;;20.43;74.74
82458;BME280;72081;48.870;11.074;2023-08-20T05:14:51;97612.91;;;20.52;74.15
82458;BME280;72081;48.870;11.074;2023-08-20T05:17:16;97615.91;;;20.50;74.63
82458;BME280;72081;48.870;11.074;2023-08-20T05:19:42;97616.06;;;20.59;74.05
82458;BME280;72081;48.870;11.074;2023-08-20T05:22:07;97620.28;;;20.75;73.83
82458;BME280;72081;48.870;11.074;2023-08-20T05:24:33;97622.78;;;20.96;72.86
82458;BME280;72081;48.870;11.074;2023-08-20T05:27:15;97623.50;;;21.06;72.89
82458;BME280;72081;48.870;11.074;2023-08-20T05:29:42;97629.78;;;21.31;72.42
82458;BME280;72081;48.870;11.074;2023-08-20T05:32:07;97619.09;;;21.82;70.94
82458;BME280;72081;48.870;11.074;2023-08-20T05:34:33;97623.66;;;23.22;65.78
82458;BME280;72081;48.870;11.074;2023-08-20T05:36:58;97619.84;;;24.14;62.62
82458;BME280;72081;48.870;11.074;2023-08-20T05:39:24;97622.28;;;24.82;60.06
82458;BME280;72081;48.870;11.074;2023-08-20T05:41:51;97621.94;;;25.37;58.29
82458;BME280;72081;48.870;11.074;2023-08-20T05:44:16;97634.22;;;25.18;58.92
82458;BME280;72081;48.870;11.074;2023-08-20T05:46:43;97631.25;;;25.36;57.43
82458;BME280;72081;48.870;11.074;2023-08-20T05:49:08;97629.72;;;25.61;58.06
82458;BME280;72081;48.870;11.074;2023-08-20T05:51:33;97626.50;;;26.42;55.84
82458;BME280;72081;48.870;11.074;2023-08-20T05:53:59;97623.41;;;26.70;53.81
82458;BME280;72081;48.870;11.074;2023-08-20T05:56:24;97629.66;;;26.87;53.68
82458;BME280;72081;48.870;11.074;2023-08-20T05:58:49;97632.94;;;26.64;54.80
82458;BME280;72081;48.870;11.074;2023-08-20T06:01:15;97636.13;;;26.57;55.01
82458;BME280;72081;48.870;11.074;2023-08-20T06:03:40;97633.22;;;26.71;54.55
82458;BME280;72081;48.870;11.074;2023-08-20T06:06:05;97639.69;;;26.66;54.13
82458;BME280;72081;48.870;11.074;2023-08-20T06:08:30;97636.81;;;26.63;54.26
82458;BME280;72081;48.870;11.074;2023-08-20T06:10:56;97640.34;;;26.63;54.58
82458;BME280;72081;48.870;11.074;2023-08-20T06:13:21;97635.00;;;26.75;53.87
82458;BME280;72081;48.870;11.074;2023-08-20T06:15:46;97646.44;;;26.60;54.08
82458;BME280;72081;48.870;11.074;2023-08-20T06:18:11;97638.22;;;26.17;55.59
82458;BME280;72081;48.870;11.074;2023-08-20T06:20:37;97646.41;;;26.17;55.95
82458;BME280;72081;48.870;11.074;2023-08-20T06:23:02;97640.94;;;26.08;57.41
82458;BME280;72081;48.870;11.074;2023-08-20T06:25:28;97644.13;;;25.84;58.54
82458;BME280;72081;48.870;11.074;2023-08-20T06:27:53;97653.53;;;26.26;56.92
82458;BME280;72081;48.870;11.074;2023-08-20T06:30:18;97645.09;;;25.88;57.65
82458;BME280;72081;48.870;11.074;2023-08-20T06:32:44;97643.19;;;25.89;58.50
82458;BME280;72081;48.870;11.074;2023-08-20T06:35:09;97640.44;;;25.97;58.35
82458;BME280;72081;48.870;11.074;2023-08-20T06:37:35;97641.75;;;26.09;57.70
82458;BME280;72081;48.870;11.074;2023-08-20T06:40:00;97647.75;;;26.54;56.78
82458;BME280;72081;48.870;11.074;2023-08-20T06:42:25;97654.19;;;26.67;56.25
82458;BME280;72081;48.870;11.074;2023-08-20T06:44:51;97647.22;;;26.78;56.20
82458;BME280;72081;48.870;11.074;2023-08-20T06:47:16;97648.53;;;26.72;56.27
82458;BME280;72081;48.870;11.074;2023-08-20T06:49:41;97632.09;;;26.72;56.76
82458;BME280;72081;48.870;11.074;2023-08-20T06:52:07;97634.50;;;26.73;56.15
82458;BME280;72081;48.870;11.074;2023-08-20T06:54:32;97629.31;;;27.06;56.64
82458;BME280;72081;48.870;11.074;2023-08-20T06:56:57;97636.63;;;27.40;55.78
82458;BME280;72081;48.870;11.074;2023-08-20T06:59:23;97638.91;;;27.68;53.25
82458;BME280;72081;48.870;11.074;2023-08-20T07:01:48;97641.56;;;27.85;53.84
82458;BME280;72081;48.870;11.074;2023-08-20T07:04:14;97640.66;;;28.02;52.37
82458;BME280;72081;48.870;11.074;2023-08-20T07:06:39;97640.56;;;28.10;52.62
82458;BME280;72081;48.870;11.074;2023-08-20T07:09:04;97642.47;;;27.98;52.84
82458;BME280;72081;48.870;11.074;2023-08-20T07:11:30;97637.69;;;28.07;52.46
82458;BME280;72081;48.870;11.074;2023-08-20T07:13:55;97638.94;;;27.89;52.72
82458;BME280;72081;48.870;11.074;2023-08-20T07:16:20;97636.97;;;27.98;53.10
82458;BME280;72081;48.870;11.074;2023-08-20T07:18:45;97637.88;;;28.31;52.98
82458;BME280;72081;48.870;11.074;2023-08-20T07:21:11;97635.41;;;28.38;51.82
82458;BME280;72081;48.870;11.074;2023-08-20T07:23:36;97628.97;;;28.34;54.00
82458;BME280;72081;48.870;11.074;2023-08-20T07:26:05;97630.94;;;28.67;53.16
82458;BME280;72081;48.870;11.074;2023-08-20T07:28:31;97633.63;;;28.76;53.80
82458;BME280;72081;48.870;11.074;2023-08-20T07:31:15;97640.78;;;28.68;54.08
82458;BME280;72081;48.870;11.074;2023-08-20T07:33:40;97642.56;;;28.31;56.29
82458;BME280;72081;48.870;11.074;2023-08-20T07:36:06;97651.19;;;28.62;53.72
82458;BME280;72081;48.870;11.074;2023-08-20T07:38:31;97645.34;;;28.64;52.20
82458;BME280;72081;48.870;11.074;2023-08-20T07:40:56;97653.56;;;28.85;49.29
82458;BME280;72081;48.870;11.074;2023-08-20T07:43:22;97651.03;;;29.13;50.68
82458;BME280;72081;48.870;11.074;2023-08-20T07:45:47;97651.28;;;29.20;50.04
82458;BME280;72081;48.870;11.074;2023-08-20T07:48:13;97650.34;;;29.28;50.12
82458;BME280;72081;48.870;11.074;2023-08-20T07:50:39;97651.34;;;29.56;49.27
82458;BME280;72081;48.870;11.074;2023-08-20T07:53:04;97653.75;;;29.70;49.70
82458;BME280;72081;48.870;11.074;2023-08-20T07:55:30;97659.47;;;29.77;48.62
82458;BME280;72081;48.870;11.074;2023-08-20T07:57:56;97656.03;;;29.68;48.97
82458;BME280;72081;48.870;11.074;2023-08-20T08:00:21;97661.09;;;29.78;48.18
82458;BME280;72081;48.870;11.074;2023-08-20T08:03:39;97664.41;;;29.84;48.91
82458;BME280;72081;48.870;11.074;2023-08-20T08:06:05;97660.63;;;30.13;48.72
82458;BME280;72081;48.870;11.074;2023-08-20T08:08:30;97662.56;;;30.00;49.15
82458;BME280;72081;48.870;11.074;2023-08-20T08:10:55;97663.50;;;30.16;46.67
82458;BME280;72081;48.870;11.074;2023-08-20T08:13:22;97666.91;;;30.26;47.72
82458;BME280;72081;48.870;11.074;2023-08-20T08:15:48;97668.38;;;30.35;48.30
82458;BME280;72081;48.870;11.074;2023-08-20T08:18:13;97671.50;;;29.97;48.34
82458;BME280;72081;48.870;11.074;2023-08-20T08:20:39;97674.16;;;30.18;47.81
82458;BME280;72081;48.870;11.074;2023-08-20T08:23:04;97676.81;;;30.14;44.92
82458;BME280;72081;48.870;11.074;2023-08-20T08:25:29;97675.09;;;30.10;45.56
82458;BME280;72081;48.870;11.074;2023-08-20T08:27:55;97667.38;;;30.03;49.23
82458;BME280;72081;48.870;11.074;2023-08-20T08:30:20;97671.06;;;29.95;46.42
82458;BME280;72081;48.870;11.074;2023-08-20T08:32:45;97674.72;;;29.87;47.53
82458;BME280;72081;48.870;11.074;2023-08-20T08:35:11;97671.84;;;30.08;46.00
82458;BME280;72081;48.870;11.074;2023-08-20T08:37:37;97672.19;;;30.31;46.53
82458;BME280;72081;48.870;11.074;2023-08-20T08:40:03;97677.25;;;30.57;48.85
82458;BME280;72081;48.870;11.074;2023-08-20T08:42:31;97674.84;;;30.15;47.32
82458;BME280;72081;48.870;11.074;2023-08-20T08:44:59;97666.34;;;30.08;47.24
82458;BME280;72081;48.870;11.074;2023-08-20T08:47:25;97674.59;;;30.20;48.23
82458;BME280;72081;48.870;11.074;2023-08-20T08:49:51;97674.94;;;30.18;46.68
82458;BME280;72081;48.870;11.074;2023-08-20T08:52:18;97672.84;;;30.40;49.21
82458;BME280;72081;48.870;11.074;2023-08-20T08:54:45;97675.59;;;30.40;47.03
82458;BME280;72081;48.870;11.074;2023-08-20T08:57:11;97675.25;;;30.41;45.59
82458;BME280;72081;48.870;11.074;2023-08-20T08:59:37;97674.59;;;30.60;46.01
82458;BME280;72081;48.870;11.074;2023-08-20T09:02:08;97676.84;;;30.83;43.49
82458;BME280;72081;48.870;11.074;2023-08-20T09:04:34;97667.19;;;30.89;45.75
82458;BME280;72081;48.870;11.074;2023-08-20T09:07:02;97668.78;;;31.18;42.99
82458;BME280;72081;48.870;11.074;2023-08-20T09:09:29;97670.84;;;31.36;42.18
82458;BME280;72081;48.870;11.074;2023-08-20T09:11:54;97666.56;;;31.55;41.74
82458;BME280;72081;48.870;11.074;2023-08-20T09:14:21;97661.41;;;31.37;41.61
82458;BME280;72081;48.870;11.074;2023-08-20T09:16:54;97675.38;;;31.29;42.02
82458;BME280;72081;48.870;11.074;2023-08-20T09:19:19;97669.94;;;31.32;40.95
82458;BME280;72081;48.870;11.074;2023-08-20T09:21:46;97668.88;;;31.53;41.38
82458;BME280;72081;48.870;11.074;2023-08-20T09:24:12;97672.88;;;31.39;41.50
82458;BME280;72081;48.870;11.074;2023-08-20T09:26:37;97663.38;;;31.53;39.71
82458;BME280;72081;48.870;11.074;2023-08-20T09:29:03;97665.41;;;31.56;39.79
82458;BME280;72081;48.870;11.074;2023-08-20T09:31:39;97667.91;;;31.61;39.79
82458;BME280;72081;48.870;11.074;2023-08-20T09:34:04;97669.50;;;31.62;39.29
82458;BME280;72081;48.870;11.074;2023-08-20T09:36:32;97672.81;;;31.67;38.42
82458;BME280;72081;48.870;11.074;2023-08-20T09:38:57;97682.44;;;31.89;39.60
82458;BME280;72081;48.870;11.074;2023-08-20T09:41:23;97673.88;;;31.79;38.58
82458;BME280;72081;48.870;11.074;2023-08-20T09:43:57;97684.13;;;31.78;38.86
82458;BME280;72081;48.870;11.074;2023-08-20T09:46:27;97683.31;;;31.93;39.13
82458;BME280;72081;48.870;11.074;2023-08-20T09:48:56;97690.88;;;31.96;39.18
82458;BME280;72081;48.870;11.074;2023-08-20T09:51:26;97688.09;;;31.96;38.78
82458;BME280;72081;48.870;11.074;2023-08-20T09:54:13;97687.94;;;31.89;38.89
82458;BME280;72081;48.870;11.074;2023-08-20T09:56:40;97689.47;;;31.87;37.94
82458;BME280;72081;48.870;11.074;2023-08-20T09:59:06;97684.44;;;32.08;35.95
82458;BME280;72081;48.870;11.074;2023-08-20T10:01:32;97679.50;;;32.17;37.83
82458;BME280;72081;48.870;11.074;2023-08-20T10:03:58;97675.16;;;32.16;35.23
82458;BME280;72081;48.870;11.074;2023-08-20T10:06:25;97674.38;;;32.00;37.68
82458;BME280;72081;48.870;11.074;2023-08-20T10:08:50;97677.78;;;31.93;41.21
82458;BME280;72081;48.870;11.074;2023-08-20T10:11:16;97673.00;;;31.90;39.52
82458;BME280;72081;48.870;11.074;2023-08-20T10:13:42;97680.22;;;31.63;39.17
82458;BME280;72081;48.870;11.074;2023-08-20T10:16:07;97673.00;;;31.90;38.68
82458;BME280;72081;48.870;11.074;2023-08-20T10:18:34;97674.06;;;32.02;37.12
82458;BME280;72081;48.870;11.074;2023-08-20T10:21:01;97672.81;;;32.34;39.70
82458;BME280;72081;48.870;11.074;2023-08-20T10:23:26;97672.88;;;32.03;37.41
82458;BME280;72081;48.870;11.074;2023-08-20T10:25:52;97663.09;;;32.05;37.81
82458;BME280;72081;48.870;11.074;2023-08-20T10:28:27;97666.22;;;31.88;38.38
82458;BME280;72081;48.870;11.074;2023-08-20T10:31:07;97669.38;;;32.21;37.86
82458;BME280;72081;48.870;11.074;2023-08-20T10:33:37;97666.00;;;32.47;37.07
82458;BME280;72081;48.870;11.074;2023-08-20T10:36:07;97671.09;;;32.65;36.29
82458;BME280;72081;48.870;11.074;2023-08-20T10:38:37;97668.91;;;32.74;36.57
82458;BME280;72081;48.870;11.074;2023-08-20T10:41:06;97675.97;;;32.71;35.72
82458;BME280;72081;48.870;11.074;2023-08-20T10:43:37;97669.34;;;32.56;37.57
82458;BME280;72081;48.870;11.074;2023-08-20T10:48:48;97673.03;;;32.80;32.69
82458;BME280;72081;48.870;11.074;2023-08-20T10:52:24;97664.13;;;32.90;33.54
82458;BME280;72081;48.870;11.074;2023-08-20T10:54:50;97663.44;;;32.97;35.12
82458;BME280;72081;48.870;11.074;2023-08-20T10:57:17;97663.19;;;33.02;35.04
82458;BME280;72081;48.870;11.074;2023-08-20T10:59:42;97663.63;;;32.84;34.02
82458;BME280;72081;48.870;11.074;2023-08-20T11:02:14;97660.25;;;32.95;32.70
82458;BME280;72081;48.870;11.074;2023-08-20T11:04:43;97662.81;;;33.03;34.38
82458;BME280;72081;48.870;11.074;2023-08-20T11:07:09;97657.03;;;33.12;34.41
82458;BME280;72081;48.870;11.074;2023-08-20T11:09:34;97657.75;;;33.09;35.78
82458;BME280;72081;48.870;11.074;2023-08-20T11:12:00;97654.03;;;33.20;34.35
82458;BME280;72081;48.870;11.074;2023-08-20T11:14:26;97652.34;;;33.16;31.90
82458;BME280;72081;48.870;11.074;2023-08-20T11:16:51;97650.16;;;33.25;33.84
82458;BME280;72081;48.870;11.074;2023-08-20T11:19:23;97655.56;;;33.18;31.73
82458;BME280;72081;48.870;11.074;2023-08-20T11:21:49;97648.31;;;33.10;33.69
82458;BME280;72081;48.870;11.074;2023-08-20T11:24:15;97652.00;;;33.37;32.23
82458;BME280;72081;48.870;11.074;2023-08-20T11:26:42;97651.53;;;33.58;32.11
82458;BME280;72081;48.870;11.074;2023-08-20T11:29:08;97651.47;;;33.54;31.86
82458;BME280;72081;48.870;11.074;2023-08-20T11:31:35;97644.94;;;33.66;30.27
82458;BME280;72081;48.870;11.074;2023-08-20T11:34:02;97648.50;;;33.66;31.33
82458;BME280;72081;48.870;11.074;2023-08-20T11:36:28;97651.03;;;33.75;30.37
82458;BME280;72081;48.870;11.074;2023-08-20T11:38:53;97651.38;;;33.73;32.49
82458;BME280;72081;48.870;11.074;2023-08-20T11:41:23;97643.88;;;33.74;32.67
82458;BME280;72081;48.870;11.074;2023-08-20T11:43:49;97650.66;;;33.76;31.39
82458;BME280;72081;48.870;11.074;2023-08-20T11:46:19;97645.72;;;33.89;31.89
82458;BME280;72081;48.870;11.074;2023-08-20T11:49:05;97641.06;;;33.70;32.80
82458;BME280;72081;48.870;11.074;2023-08-20T11:51:42;97641.59;;;33.79;32.65
82458;BME280;72081;48.870;11.074;2023-08-20T11:54:10;97639.09;;;33.94;29.72
82458;BME280;72081;48.870;11.074;2023-08-20T11:56:36;97632.97;;;34.11;30.47
82458;BME280;72081;48.870;11.074;2023-08-20T11:59:03;97639.09;;;34.24;30.88
82458;BME280;72081;48.870;11.074;2023-08-20T12:01:32;97632.28;;;34.18;29.15
82458;BME280;72081;48.870;11.074;2023-08-20T12:04:02;97633.72;;;34.08;30.88
82458;BME280;72081;48.870;11.074;2023-08-20T12:06:28;97635.13;;;33.72;32.46
82458;BME280;72081;48.870;11.074;2023-08-20T12:08:56;97631.47;;;33.87;30.62
82458;BME280;72081;48.870;11.074;2023-08-20T12:11:28;97632.59;;;34.39;30.83
82458;BME280;72081;48.870;11.074;2023-08-20T12:13:54;97627.22;;;34.23;32.43
82458;BME280;72081;48.870;11.074;2023-08-20T12:16:24;97629.94;;;34.50;30.27
82458;BME280;72081;48.870;11.074;2023-08-20T12:18:50;97625.28;;;34.54;29.93
82458;BME280;72081;48.870;11.074;2023-08-20T12:21:15;97616.03;;;34.76;26.64
82458;BME280;72081;48.870;11.074;2023-08-20T12:23:41;97617.50;;;35.04;28.43
82458;BME280;72081;48.870;11.074;2023-08-20T12:26:06;97615.53;;;35.04;31.55
82458;BME280;72081;48.870;11.074;2023-08-20T12:28:33;97612.94;;;35.22;28.55
82458;BME280;72081;48.870;11.074;2023-08-20T12:30:58;97616.09;;;35.20;30.69
82458;BME280;72081;48.870;11.074;2023-08-20T12:33:23;97610.75;;;35.42;31.73
82458;BME280;72081;48.870;11.074;2023-08-20T12:35:49;97610.97;;;35.22;30.63
82458;BME280;72081;48.870;11.074;2023-08-20T12:38:15;97601.78;;;35.15;30.45
82458;BME280;72081;48.870;11.074;2023-08-20T12:40:40;97602.56;;;35.12;32.36
82458;BME280;72081;48.870;11.074;2023-08-20T12:43:05;97600.25;;;35.24;30.77
82458;BME280;72081;48.870;11.074;2023-08-20T12:45:31;97604.78;;;35.40;31.38
82458;BME280;72081;48.870;11.074;2023-08-20T12:47:56;97598.09;;;35.48;28.70
82458;BME280;72081;48.870;11.074;2023-08-20T12:50:21;97591.56;;;35.74;27.89
82458;BME280;72081;48.870;11.074;2023-08-20T12:52:47;97586.41;;;35.28;29.47
82458;BME280;72081;48.870;11.074;2023-08-20T12:55:14;97592.19;;;35.49;31.18
82458;BME280;72081;48.870;11.074;2023-08-20T12:57:52;97587.97;;;35.70;28.38
82458;BME280;72081;48.870;11.074;2023-08-20T13:00:18;97587.75;;;35.96;26.97
82458;BME280;72081;48.870;11.074;2023-08-20T13:02:44;97592.16;;;36.01;28.13